createdAt,value
2022-10-25T00:01:31.317Z,14.69
2022-10-25T00:05:42.939Z,14.71
2022-10-25T00:09:54.401Z,14.71
2022-10-25T00:14:07.204Z,14.74
2022-10-25T00:18:18.753Z,14.73
2022-10-25T00:22:30.225Z,14.71
2022-10-25T00:26:41.945Z,14.67
2022-10-25T00:31:05.162Z,14.75
2022-10-25T00:35:16.661Z,14.74
2022-10-25T00:39:29.364Z,14.74
2022-10-25T00:43:42.200Z,14.76
2022-10-25T00:48:03.432Z,14.68
2022-10-25T00:52:16.113Z,14.70
2022-10-25T00:56:31.877Z,14.73
2022-10-25T01:00:45.678Z,14.66
2022-10-25T01:04:57.242Z,14.66
2022-10-25T01:09:10.701Z,14.73
2022-10-25T01:13:22.484Z,14.78
2022-10-25T01:17:46.493Z,14.78
2022-10-25T01:22:08.705Z,14.84
2022-10-25T01:27:10.192Z,14.86
2022-10-25T01:31:39.178Z,14.87
2022-10-25T01:36:03.156Z,14.85
2022-10-25T01:40:32.829Z,14.84
2022-10-25T01:44:54.241Z,14.85
2022-10-25T01:49:10.324Z,14.88
2022-10-25T01:53:21.823Z,14.89
2022-10-25T01:57:51.477Z,14.87
2022-10-25T02:02:32.102Z,14.90
2022-10-25T02:07:07.438Z,14.92
2022-10-25T02:11:33.080Z,14.90
2022-10-25T02:16:27.592Z,14.90
2022-10-25T02:20:45.866Z,14.91
2022-10-25T02:24:59.972Z,14.90
2022-10-25T02:29:13.652Z,14.91
2022-10-25T02:33:25.775Z,14.95
2022-10-25T02:37:37.380Z,14.90
2022-10-25T02:41:48.974Z,14.89
2022-10-25T02:46:04.725Z,14.92
2022-10-25T02:50:16.475Z,14.90
2022-10-25T02:54:28.092Z,14.93
2022-10-25T02:58:42.219Z,14.96
2022-10-25T03:02:53.761Z,14.91
2022-10-25T03:07:05.295Z,14.89
2022-10-25T03:11:17.597Z,14.90
2022-10-25T03:15:29.169Z,14.91
2022-10-25T03:19:40.778Z,14.91
2022-10-25T03:23:52.813Z,14.91
2022-10-25T03:28:04.462Z,14.95
2022-10-25T03:32:16.031Z,14.92
2022-10-25T03:36:27.644Z,14.92
2022-10-25T03:40:39.210Z,14.92
2022-10-25T03:44:51.937Z,14.94
2022-10-25T03:49:03.508Z,14.93
2022-10-25T03:53:15.171Z,14.93
2022-10-25T03:57:27.207Z,14.91
2022-10-25T04:01:38.883Z,14.87
2022-10-25T04:05:50.557Z,14.89
2022-10-25T04:10:02.435Z,14.96
2022-10-25T04:14:14.579Z,14.94
2022-10-25T04:18:26.145Z,14.97
2022-10-25T04:26:49.212Z,14.92
2022-10-25T04:31:00.831Z,14.93
2022-10-25T04:35:12.889Z,14.96
2022-10-25T04:39:26.157Z,14.88
2022-10-25T04:43:37.774Z,14.87
2022-10-25T04:47:49.437Z,14.88
2022-10-25T04:52:01.078Z,14.89
2022-10-25T04:56:14.381Z,14.89
2022-10-25T05:00:26.611Z,14.85
2022-10-25T05:04:38.264Z,14.79
2022-10-25T05:08:51.251Z,14.80
2022-10-25T05:13:02.892Z,14.79
2022-10-25T05:17:14.465Z,14.86
2022-10-25T05:21:28.763Z,14.79
2022-10-25T05:25:40.701Z,14.81
2022-10-25T05:29:52.319Z,14.79
2022-10-25T05:34:03.870Z,14.76
2022-10-25T05:38:15.414Z,14.77
2022-10-25T05:42:27.662Z,14.73
2022-10-25T05:46:39.235Z,14.71
2022-10-25T05:50:55.828Z,14.68
2022-10-25T05:55:11.051Z,14.63
2022-10-25T05:59:22.590Z,14.66
2022-10-25T06:03:34.402Z,14.63
2022-10-25T06:07:45.942Z,14.63
2022-10-25T06:11:57.521Z,14.66
2022-10-25T06:16:14.969Z,14.56
2022-10-25T06:20:26.579Z,14.50
2022-10-25T06:24:38.258Z,14.45
2022-10-25T06:28:53.568Z,14.41
2022-10-25T06:33:05.141Z,14.40
2022-10-25T06:37:16.869Z,14.41
2022-10-25T06:41:31.354Z,14.47
2022-10-25T06:45:42.879Z,14.44
2022-10-25T06:49:54.523Z,14.42
2022-10-25T06:54:08.061Z,14.41
2022-10-25T06:58:19.590Z,14.49
2022-10-25T07:02:31.200Z,14.56
2022-10-25T07:06:42.763Z,14.59
2022-10-25T07:10:55.390Z,14.52
2022-10-25T07:15:07.834Z,14.61
2022-10-25T07:19:19.505Z,14.66
2022-10-25T07:23:31.625Z,14.72
2022-10-25T07:27:43.193Z,14.73
2022-10-25T07:31:54.768Z,14.93
2022-10-25T07:36:10.810Z,15.45
2022-10-25T07:40:23.125Z,15.85
2022-10-25T07:44:34.759Z,15.92
2022-10-25T07:48:46.389Z,15.76
2022-10-25T07:52:59.022Z,15.69
2022-10-25T07:57:11.289Z,15.62
2022-10-25T08:01:27.492Z,15.63
2022-10-25T08:05:39.379Z,15.60
2022-10-25T08:09:51.081Z,15.68
2022-10-25T08:14:02.644Z,15.65
2022-10-25T08:18:14.201Z,15.60
2022-10-25T08:22:25.792Z,15.63
2022-10-25T08:26:37.442Z,15.66
2022-10-25T08:30:49.060Z,15.80
2022-10-25T08:35:00.666Z,15.89
2022-10-25T08:39:12.279Z,15.93
2022-10-25T08:43:38.995Z,16.12
2022-10-25T08:47:54.143Z,16.13
2022-10-25T08:52:17.361Z,16.08
2022-10-25T08:56:30.309Z,15.95
2022-10-25T09:00:44.980Z,15.85
2022-10-25T09:04:56.635Z,15.93
2022-10-25T09:09:30.142Z,16.13
2022-10-25T09:13:44.634Z,16.15
2022-10-25T09:17:56.151Z,16.26
2022-10-25T09:22:19.125Z,16.38
2022-10-25T09:26:42.276Z,16.47
2022-10-25T09:30:57.203Z,16.59
2022-10-25T09:35:18.432Z,16.80
2022-10-25T09:39:42.882Z,17.01
2022-10-25T09:44:03.499Z,17.64
2022-10-25T09:48:39.009Z,18.53
2022-10-25T09:53:02.646Z,19.08
2022-10-25T09:57:14.356Z,19.27
2022-10-25T10:01:28.285Z,19.46
2022-10-25T10:05:45.618Z,19.59
2022-10-25T10:10:00.650Z,19.24
2022-10-25T10:14:21.240Z,19.07
2022-10-25T10:18:34.700Z,19.25
2022-10-25T10:27:06.142Z,18.68
2022-10-25T10:31:19.198Z,18.38
2022-10-25T10:35:36.617Z,18.27
2022-10-25T10:39:54.243Z,18.31
2022-10-25T10:44:13.224Z,18.36
2022-10-25T10:48:24.782Z,18.51
2022-10-25T10:52:44.863Z,18.51
2022-10-25T10:57:02.900Z,18.65
2022-10-25T11:01:28.849Z,18.66
2022-10-25T11:05:42.742Z,18.52
2022-10-25T11:10:19.108Z,18.55
2022-10-25T11:14:30.724Z,18.61
2022-10-25T11:19:14.578Z,18.70
2022-10-25T11:23:36.523Z,19.13
2022-10-25T11:28:06.786Z,19.67
2022-10-25T11:32:40.146Z,19.57
2022-10-25T11:36:57.961Z,19.40
2022-10-25T11:41:27.243Z,19.95
2022-10-25T11:45:44.184Z,19.98
2022-10-25T11:50:08.815Z,20.03
2022-10-25T11:54:36.404Z,20.07
2022-10-25T11:59:20.593Z,20.53
2022-10-25T12:03:46.316Z,20.73
2022-10-25T12:08:22.712Z,21.07
2022-10-25T12:12:55.527Z,21.13
2022-10-25T12:17:31.658Z,20.98
2022-10-25T12:21:56.692Z,21.01
2022-10-25T12:26:26.162Z,21.01
2022-10-25T12:30:39.951Z,21.09
2022-10-25T12:34:53.948Z,20.97
2022-10-25T12:39:26.152Z,20.67
2022-10-25T12:43:51.054Z,20.49
2022-10-25T12:48:44.674Z,20.33
2022-10-25T12:53:14.921Z,20.22
2022-10-25T12:57:46.086Z,20.05
2022-10-25T13:02:33.758Z,19.97
2022-10-25T13:06:51.089Z,19.83
2022-10-25T13:11:06.053Z,19.78
2022-10-25T13:15:19.065Z,19.89
2022-10-25T13:19:49.827Z,19.77
2022-10-25T13:24:03.138Z,19.61
2022-10-25T13:28:14.724Z,19.42
2022-10-25T13:32:26.759Z,19.37
2022-10-25T13:36:59.129Z,19.35
2022-10-25T13:41:12.690Z,19.23
2022-10-25T13:45:37.886Z,19.12
2022-10-25T13:49:49.524Z,19.05
2022-10-25T13:54:07.185Z,19.04
2022-10-25T13:58:31.595Z,18.98
2022-10-25T14:03:05.388Z,19.05
2022-10-25T14:07:43.056Z,19.10
2022-10-25T14:12:00.652Z,19.13
2022-10-25T14:16:26.592Z,19.23
2022-10-25T14:20:39.113Z,19.15
2022-10-25T14:24:55.979Z,19.02
2022-10-25T14:29:17.619Z,19.02
2022-10-25T14:33:43.066Z,19.08
2022-10-25T14:37:54.768Z,18.99
2022-10-25T14:42:16.316Z,18.91
2022-10-25T14:46:33.961Z,18.78
2022-10-25T14:50:45.678Z,18.61
2022-10-25T14:55:04.240Z,18.41
2022-10-25T15:04:08.782Z,18.27
2022-10-25T15:08:23.340Z,18.15
2022-10-25T15:12:34.996Z,18.07
2022-10-25T15:16:49.816Z,18.00
2022-10-25T15:21:08.829Z,17.85
2022-10-25T15:25:23.316Z,17.80
2022-10-25T15:29:41.007Z,17.69
2022-10-25T15:34:01.338Z,17.64
2022-10-25T15:38:13.124Z,17.50
2022-10-25T15:42:26.096Z,17.36
2022-10-25T15:46:38.126Z,17.24
2022-10-25T15:50:55.105Z,17.15
2022-10-25T15:55:22.414Z,17.10
2022-10-25T15:59:34.035Z,16.96
2022-10-25T16:03:45.713Z,16.83
2022-10-25T16:07:57.395Z,16.76
2022-10-25T16:12:12.198Z,16.64
2022-10-25T16:16:40.470Z,16.53
2022-10-25T16:20:56.385Z,16.44
2022-10-25T16:25:08.474Z,16.29
2022-10-25T16:29:24.886Z,16.19
2022-10-25T16:33:36.456Z,16.07
2022-10-25T16:37:48.289Z,15.99
2022-10-25T16:42:00.123Z,15.91
2022-10-25T16:46:11.814Z,15.82
2022-10-25T16:50:28.816Z,15.78
2022-10-25T16:54:40.428Z,15.74
2022-10-25T16:58:52.071Z,15.65
2022-10-25T17:03:03.948Z,15.56
2022-10-25T17:07:15.681Z,15.48
2022-10-25T17:11:27.239Z,15.48
2022-10-25T17:15:38.807Z,15.34
2022-10-25T17:19:51.373Z,15.27
2022-10-25T17:24:04.679Z,15.24
2022-10-25T17:28:16.242Z,15.15
2022-10-25T17:32:27.917Z,15.07
2022-10-25T17:36:39.777Z,15.00
2022-10-25T17:40:51.427Z,14.92
2022-10-25T17:45:03.291Z,14.81
2022-10-25T17:49:14.937Z,14.73
2022-10-25T17:53:26.514Z,14.64
2022-10-25T17:57:38.108Z,14.55
2022-10-25T18:01:50.158Z,14.46
2022-10-25T18:06:08.200Z,14.45
2022-10-25T18:10:20.496Z,14.35
2022-10-25T18:14:32.127Z,14.26
2022-10-25T18:18:43.754Z,14.17
2022-10-25T18:22:55.562Z,14.07
2022-10-25T18:27:07.121Z,13.94
2022-10-25T18:31:20.121Z,13.83
2022-10-25T18:35:31.791Z,13.75
2022-10-25T18:39:43.421Z,13.69
2022-10-25T18:43:55.605Z,13.62
2022-10-25T18:48:07.226Z,13.53
2022-10-25T18:52:19.115Z,13.46
2022-10-25T18:56:31.426Z,13.38
2022-10-25T19:00:44.002Z,13.32
2022-10-25T19:04:55.649Z,13.23
2022-10-25T19:09:07.363Z,13.20
2022-10-25T19:13:19.602Z,13.15
2022-10-25T19:17:31.363Z,13.07
2022-10-25T19:21:43.077Z,13.00
2022-10-25T19:25:55.182Z,12.98
2022-10-25T19:30:07.260Z,12.88
2022-10-25T19:34:18.986Z,12.84
2022-10-25T19:38:30.581Z,12.80
2022-10-25T19:42:42.197Z,12.75
2022-10-25T19:46:53.833Z,12.71
2022-10-25T19:51:08.038Z,12.62
2022-10-25T19:55:19.755Z,12.61
2022-10-25T19:59:31.555Z,12.54
2022-10-25T20:03:44.408Z,12.49
2022-10-25T20:07:56.054Z,12.46
2022-10-25T20:12:07.772Z,12.43
2022-10-25T20:16:19.341Z,12.34
2022-10-25T20:20:30.922Z,12.29
2022-10-25T20:24:42.516Z,12.23
2022-10-25T20:28:55.352Z,12.17
2022-10-25T20:33:07.478Z,12.15
2022-10-25T20:37:19.079Z,12.06
2022-10-25T20:41:31.113Z,12.06
2022-10-25T20:45:44.097Z,12.05
2022-10-25T20:49:55.619Z,12.05
2022-10-25T20:54:09.579Z,12.04
2022-10-25T20:58:22.943Z,12.01
2022-10-25T21:02:34.542Z,12.08
2022-10-25T21:06:46.121Z,12.08
2022-10-25T21:11:00.131Z,12.04
2022-10-25T21:15:12.297Z,12.01
2022-10-25T21:19:24.062Z,12.03
2022-10-25T21:23:36.328Z,12.02
2022-10-25T21:27:48.126Z,12.02
2022-10-25T21:31:59.786Z,11.94
2022-10-25T21:36:13.297Z,11.91
2022-10-25T21:40:24.850Z,11.87
2022-10-25T21:44:36.411Z,11.86
2022-10-25T21:48:50.466Z,11.86
2022-10-25T21:53:02.057Z,11.78
2022-10-25T21:57:13.606Z,11.76
2022-10-25T22:01:30.188Z,11.76
2022-10-25T22:05:44.957Z,11.78
2022-10-25T22:09:56.453Z,11.75
2022-10-25T22:14:10.402Z,11.71
2022-10-25T22:18:21.914Z,11.71
2022-10-25T22:22:33.502Z,11.68
2022-10-25T22:26:46.109Z,11.62
2022-10-25T22:31:09.411Z,11.61
2022-10-25T22:35:20.979Z,11.59
2022-10-25T22:39:32.536Z,11.59
2022-10-25T22:43:44.852Z,11.61
2022-10-25T22:47:56.478Z,11.48
2022-10-25T22:52:08.057Z,11.55
2022-10-25T22:56:25.516Z,11.51
2022-10-25T23:00:37.091Z,11.55
2022-10-25T23:04:48.628Z,11.56
2022-10-25T23:09:02.054Z,11.57
2022-10-25T23:13:13.561Z,11.60
2022-10-25T23:17:25.131Z,11.56
2022-10-25T23:21:36.717Z,11.54
2022-10-25T23:25:48.395Z,11.55
2022-10-25T23:29:59.977Z,11.58
2022-10-25T23:34:11.754Z,11.57
2022-10-25T23:38:23.571Z,11.55
2022-10-25T23:42:35.133Z,11.58
2022-10-25T23:46:46.746Z,11.52
2022-10-25T23:55:13.001Z,11.63
